sensor_id;sensor_type;location;lat;lon;timestamp;P1;durP1;ratioP1;P2;durP2;ratioP2
47403;SDS011;33157;51.508;4.288;2023-02-07T00:02:18;26.00;;;7.35;;
47403;SDS011;33157;51.508;4.288;2023-02-07T00:07:26;25.40;;;7.70;;
47403;SDS011;33157;51.508;4.288;2023-02-07T00:12:41;23.83;;;7.63;;
47403;SDS011;33157;51.508;4.288;2023-02-07T00:17:50;27.17;;;8.43;;
47403;SDS011;33157;51.508;4.288;2023-02-07T00:22:58;16.25;;;7.20;;
47403;SDS011;33157;51.508;4.288;2023-02-07T00:28:12;22.75;;;7.57;;
47403;SDS011;33157;51.508;4.288;2023-02-07T00:33:17;22.58;;;7.93;;
47403;SDS011;33157;51.508;4.288;2023-02-07T00:38:22;22.10;;;7.30;;
47403;SDS011;33157;51.508;4.288;2023-02-07T00:43:31;20.20;;;7.80;;
47403;SDS011;33157;51.508;4.288;2023-02-07T00:48:46;26.45;;;9.27;;
47403;SDS011;33157;51.508;4.288;2023-02-07T00:54:19;27.50;;;7.93;;
47403;SDS011;33157;51.508;4.288;2023-02-07T00:59:45;29.55;;;8.05;;
47403;SDS011;33157;51.508;4.288;2023-02-07T01:04:51;19.55;;;7.53;;
47403;SDS011;33157;51.508;4.288;2023-02-07T01:10:10;27.00;;;7.45;;
47403;SDS011;33157;51.508;4.288;2023-02-07T01:15:18;18.85;;;7.25;;
47403;SDS011;33157;51.508;4.288;2023-02-07T01:20:28;22.27;;;9.05;;
47403;SDS011;33157;51.508;4.288;2023-02-07T01:25:47;17.88;;;7.82;;
47403;SDS011;33157;51.508;4.288;2023-02-07T01:31:15;29.58;;;8.95;;
47403;SDS011;33157;51.508;4.288;2023-02-07T01:36:28;23.58;;;8.02;;
47403;SDS011;33157;51.508;4.288;2023-02-07T01:41:31;21.90;;;7.30;;
47403;SDS011;33157;51.508;4.288;2023-02-07T01:46:37;19.02;;;7.65;;
47403;SDS011;33157;51.508;4.288;2023-02-07T01:51:48;26.08;;;7.57;;
47403;SDS011;33157;51.508;4.288;2023-02-07T01:57:06;20.45;;;7.90;;
47403;SDS011;33157;51.508;4.288;2023-02-07T02:02:14;22.05;;;8.07;;
47403;SDS011;33157;51.508;4.288;2023-02-07T02:07:45;22.52;;;8.23;;
47403;SDS011;33157;51.508;4.288;2023-02-07T02:12:56;21.70;;;7.05;;
47403;SDS011;33157;51.508;4.288;2023-02-07T02:46:02;32.78;;;9.75;;
47403;SDS011;33157;51.508;4.288;2023-02-07T02:51:40;20.92;;;8.20;;
47403;SDS011;33157;51.508;4.288;2023-02-07T02:57:12;27.10;;;10.57;;
47403;SDS011;33157;51.508;4.288;2023-02-07T03:07:58;34.75;;;10.15;;
47403;SDS011;33157;51.508;4.288;2023-02-07T03:13:48;28.45;;;9.57;;
47403;SDS011;33157;51.508;4.288;2023-02-07T03:24:52;31.48;;;10.02;;
47403;SDS011;33157;51.508;4.288;2023-02-07T03:29:59;29.35;;;10.10;;
47403;SDS011;33157;51.508;4.288;2023-02-07T03:40:35;31.83;;;10.88;;
47403;SDS011;33157;51.508;4.288;2023-02-07T03:45:45;31.30;;;9.82;;
47403;SDS011;33157;51.508;4.288;2023-02-07T03:51:01;33.65;;;11.40;;
47403;SDS011;33157;51.508;4.288;2023-02-07T03:56:22;30.23;;;11.23;;
47403;SDS011;33157;51.508;4.288;2023-02-07T04:01:28;40.22;;;14.38;;
47403;SDS011;33157;51.508;4.288;2023-02-07T04:06:39;31.50;;;12.82;;
47403;SDS011;33157;51.508;4.288;2023-02-07T04:11:43;30.33;;;11.70;;
47403;SDS011;33157;51.508;4.288;2023-02-07T04:16:50;40.28;;;14.02;;
47403;SDS011;33157;51.508;4.288;2023-02-07T04:21:58;32.35;;;14.45;;
47403;SDS011;33157;51.508;4.288;2023-02-07T04:32:46;31.75;;;13.23;;
47403;SDS011;33157;51.508;4.288;2023-02-07T04:37:55;34.72;;;14.35;;
47403;SDS011;33157;51.508;4.288;2023-02-07T04:43:13;35.65;;;14.63;;
47403;SDS011;33157;51.508;4.288;2023-02-07T04:48:47;45.92;;;15.35;;
47403;SDS011;33157;51.508;4.288;2023-02-07T04:54:03;30.80;;;14.25;;
47403;SDS011;33157;51.508;4.288;2023-02-07T04:59:24;43.45;;;15.40;;
47403;SDS011;33157;51.508;4.288;2023-02-07T05:04:36;42.90;;;15.80;;
47403;SDS011;33157;51.508;4.288;2023-02-07T05:10:12;42.55;;;15.73;;
47403;SDS011;33157;51.508;4.288;2023-02-07T05:15:19;48.30;;;18.65;;
47403;SDS011;33157;51.508;4.288;2023-02-07T05:25:59;52.75;;;17.63;;
47403;SDS011;33157;51.508;4.288;2023-02-07T05:31:49;56.80;;;20.30;;
47403;SDS011;33157;51.508;4.288;2023-02-07T05:37:25;82.25;;;24.35;;
47403;SDS011;33157;51.508;4.288;2023-02-07T05:42:56;82.05;;;23.42;;
47403;SDS011;33157;51.508;4.288;2023-02-07T05:48:32;60.60;;;22.33;;
47403;SDS011;33157;51.508;4.288;2023-02-07T05:53:59;63.97;;;22.20;;
47403;SDS011;33157;51.508;4.288;2023-02-07T05:59:16;43.45;;;21.88;;
47403;SDS011;33157;51.508;4.288;2023-02-07T06:04:20;43.15;;;20.17;;
47403;SDS011;33157;51.508;4.288;2023-02-07T06:09:33;49.30;;;20.45;;
47403;SDS011;33157;51.508;4.288;2023-02-07T06:14:34;36.50;;;21.45;;
47403;SDS011;33157;51.508;4.288;2023-02-07T06:19:36;44.30;;;21.48;;
47403;SDS011;33157;51.508;4.288;2023-02-07T06:24:38;42.92;;;21.48;;
47403;SDS011;33157;51.508;4.288;2023-02-07T06:29:48;41.97;;;22.08;;
47403;SDS011;33157;51.508;4.288;2023-02-07T06:35:03;46.50;;;21.48;;
47403;SDS011;33157;51.508;4.288;2023-02-07T06:40:11;42.28;;;21.13;;
47403;SDS011;33157;51.508;4.288;2023-02-07T06:45:54;40.65;;;20.63;;
47403;SDS011;33157;51.508;4.288;2023-02-07T06:50:57;40.58;;;20.13;;
47403;SDS011;33157;51.508;4.288;2023-02-07T06:56:00;43.10;;;21.75;;
47403;SDS011;33157;51.508;4.288;2023-02-07T07:01:03;41.72;;;21.27;;
47403;SDS011;33157;51.508;4.288;2023-02-07T07:06:22;43.38;;;21.25;;
47403;SDS011;33157;51.508;4.288;2023-02-07T07:11:24;52.80;;;23.45;;
47403;SDS011;33157;51.508;4.288;2023-02-07T07:16:49;49.60;;;23.10;;
47403;SDS011;33157;51.508;4.288;2023-02-07T07:21:51;57.25;;;25.95;;
47403;SDS011;33157;51.508;4.288;2023-02-07T07:27:36;55.75;;;25.77;;
47403;SDS011;33157;51.508;4.288;2023-02-07T07:32:43;50.53;;;24.05;;
47403;SDS011;33157;51.508;4.288;2023-02-07T07:38:00;60.03;;;25.10;;
47403;SDS011;33157;51.508;4.288;2023-02-07T07:43:33;61.45;;;24.70;;
47403;SDS011;33157;51.508;4.288;2023-02-07T07:48:40;58.03;;;25.35;;
47403;SDS011;33157;51.508;4.288;2023-02-07T07:53:45;61.13;;;26.23;;
47403;SDS011;33157;51.508;4.288;2023-02-07T07:59:20;60.00;;;26.33;;
47403;SDS011;33157;51.508;4.288;2023-02-07T08:04:53;56.90;;;24.65;;
47403;SDS011;33157;51.508;4.288;2023-02-07T08:10:07;61.58;;;26.20;;
47403;SDS011;33157;51.508;4.288;2023-02-07T08:15:29;61.47;;;25.88;;
47403;SDS011;33157;51.508;4.288;2023-02-07T08:20:41;52.90;;;24.58;;
47403;SDS011;33157;51.508;4.288;2023-02-07T08:25:47;48.00;;;25.20;;
47403;SDS011;33157;51.508;4.288;2023-02-07T08:31:14;45.10;;;21.13;;
47403;SDS011;33157;51.508;4.288;2023-02-07T08:36:17;44.93;;;21.53;;
47403;SDS011;33157;51.508;4.288;2023-02-07T08:41:19;43.28;;;21.73;;
47403;SDS011;33157;51.508;4.288;2023-02-07T08:51:33;35.92;;;18.65;;
47403;SDS011;33157;51.508;4.288;2023-02-07T08:57:01;38.80;;;19.85;;
47403;SDS011;33157;51.508;4.288;2023-02-07T09:02:31;34.22;;;18.70;;
47403;SDS011;33157;51.508;4.288;2023-02-07T09:08:17;43.47;;;18.37;;
47403;SDS011;33157;51.508;4.288;2023-02-07T09:13:22;36.20;;;19.30;;
47403;SDS011;33157;51.508;4.288;2023-02-07T09:18:28;33.03;;;17.60;;
47403;SDS011;33157;51.508;4.288;2023-02-07T09:24:11;40.88;;;19.33;;
47403;SDS011;33157;51.508;4.288;2023-02-07T09:29:15;36.50;;;19.15;;
47403;SDS011;33157;51.508;4.288;2023-02-07T09:34:16;39.40;;;19.60;;
47403;SDS011;33157;51.508;4.288;2023-02-07T09:39:39;39.13;;;20.92;;
47403;SDS011;33157;51.508;4.288;2023-02-07T09:50:26;35.63;;;20.35;;
47403;SDS011;33157;51.508;4.288;2023-02-07T10:01:21;38.80;;;20.25;;
47403;SDS011;33157;51.508;4.288;2023-02-07T10:06:57;39.47;;;20.23;;
47403;SDS011;33157;51.508;4.288;2023-02-07T10:23:49;39.42;;;22.13;;
47403;SDS011;33157;51.508;4.288;2023-02-07T10:35:01;38.78;;;21.15;;
47403;SDS011;33157;51.508;4.288;2023-02-07T10:40:39;38.72;;;20.67;;
47403;SDS011;33157;51.508;4.288;2023-02-07T10:46:21;37.08;;;19.67;;
47403;SDS011;33157;51.508;4.288;2023-02-07T10:56:30;37.88;;;18.85;;
47403;SDS011;33157;51.508;4.288;2023-02-07T11:02:02;34.13;;;18.73;;
47403;SDS011;33157;51.508;4.288;2023-02-07T11:07:58;38.97;;;19.08;;
47403;SDS011;33157;51.508;4.288;2023-02-07T11:13:27;33.58;;;18.85;;
47403;SDS011;33157;51.508;4.288;2023-02-07T11:18:55;39.47;;;22.67;;
47403;SDS011;33157;51.508;4.288;2023-02-07T11:29:30;32.60;;;16.80;;
47403;SDS011;33157;51.508;4.288;2023-02-07T11:35:16;30.27;;;17.27;;
47403;SDS011;33157;51.508;4.288;2023-02-07T11:40:37;35.25;;;17.58;;
47403;SDS011;33157;51.508;4.288;2023-02-07T11:45:50;40.42;;;18.85;;
47403;SDS011;33157;51.508;4.288;2023-02-07T11:51:06;32.10;;;17.50;;
47403;SDS011;33157;51.508;4.288;2023-02-07T12:01:56;28.38;;;16.35;;
47403;SDS011;33157;51.508;4.288;2023-02-07T12:07:08;26.63;;;16.33;;
47403;SDS011;33157;51.508;4.288;2023-02-07T12:13:04;30.13;;;16.85;;
47403;SDS011;33157;51.508;4.288;2023-02-07T12:24:25;31.98;;;17.48;;
47403;SDS011;33157;51.508;4.288;2023-02-07T12:35:19;33.65;;;17.33;;
47403;SDS011;33157;51.508;4.288;2023-02-07T12:40:47;29.73;;;16.75;;
47403;SDS011;33157;51.508;4.288;2023-02-07T13:02:39;25.10;;;15.50;;
47403;SDS011;33157;51.508;4.288;2023-02-07T13:19:26;29.58;;;17.15;;
47403;SDS011;33157;51.508;4.288;2023-02-07T13:24:34;25.88;;;15.57;;
47403;SDS011;33157;51.508;4.288;2023-02-07T13:29:47;33.13;;;17.17;;
47403;SDS011;33157;51.508;4.288;2023-02-07T13:35:02;29.42;;;16.05;;
47403;SDS011;33157;51.508;4.288;2023-02-07T13:40:27;30.92;;;16.52;;
47403;SDS011;33157;51.508;4.288;2023-02-07T13:51:14;28.85;;;17.85;;
47403;SDS011;33157;51.508;4.288;2023-02-07T13:56:54;30.17;;;18.70;;
47403;SDS011;33157;51.508;4.288;2023-02-07T14:02:28;35.58;;;20.25;;
47403;SDS011;33157;51.508;4.288;2023-02-07T14:07:32;30.02;;;19.02;;
47403;SDS011;33157;51.508;4.288;2023-02-07T14:12:59;31.52;;;18.38;;
47403;SDS011;33157;51.508;4.288;2023-02-07T14:18:05;30.55;;;18.50;;
47403;SDS011;33157;51.508;4.288;2023-02-07T14:40:52;26.65;;;16.60;;
47403;SDS011;33157;51.508;4.288;2023-02-07T14:46:12;26.00;;;16.67;;
47403;SDS011;33157;51.508;4.288;2023-02-07T15:01:48;27.77;;;17.08;;
47403;SDS011;33157;51.508;4.288;2023-02-07T15:06:59;23.00;;;16.17;;
47403;SDS011;33157;51.508;4.288;2023-02-07T15:12:07;24.83;;;15.77;;
47403;SDS011;33157;51.508;4.288;2023-02-07T15:17:45;29.92;;;15.52;;
47403;SDS011;33157;51.508;4.288;2023-02-07T15:22:54;24.85;;;16.38;;
47403;SDS011;33157;51.508;4.288;2023-02-07T15:28:36;25.58;;;15.93;;
47403;SDS011;33157;51.508;4.288;2023-02-07T15:34:04;23.05;;;15.38;;
47403;SDS011;33157;51.508;4.288;2023-02-07T15:39:20;25.33;;;14.85;;
47403;SDS011;33157;51.508;4.288;2023-02-07T15:44:45;30.23;;;15.88;;
47403;SDS011;33157;51.508;4.288;2023-02-07T15:55:47;23.98;;;15.73;;
47403;SDS011;33157;51.508;4.288;2023-02-07T16:01:00;29.05;;;15.98;;
47403;SDS011;33157;51.508;4.288;2023-02-07T16:06:17;27.17;;;15.17;;
47403;SDS011;33157;51.508;4.288;2023-02-07T16:11:43;24.20;;;14.05;;
47403;SDS011;33157;51.508;4.288;2023-02-07T16:17:15;22.42;;;13.68;;
47403;SDS011;33157;51.508;4.288;2023-02-07T16:22:51;22.70;;;13.45;;
47403;SDS011;33157;51.508;4.288;2023-02-07T16:28:20;22.63;;;14.38;;
47403;SDS011;33157;51.508;4.288;2023-02-07T16:33:30;20.10;;;12.98;;
47403;SDS011;33157;51.508;4.288;2023-02-07T16:38:31;21.70;;;12.55;;
47403;SDS011;33157;51.508;4.288;2023-02-07T16:44:23;20.27;;;12.70;;
47403;SDS011;33157;51.508;4.288;2023-02-07T16:50:11;18.73;;;12.40;;
47403;SDS011;33157;51.508;4.288;2023-02-07T16:55:50;24.17;;;12.55;;
47403;SDS011;33157;51.508;4.288;2023-02-07T17:01:33;25.23;;;12.98;;
47403;SDS011;33157;51.508;4.288;2023-02-07T17:07:14;21.08;;;12.48;;
47403;SDS011;33157;51.508;4.288;2023-02-07T17:12:28;23.75;;;13.57;;
47403;SDS011;33157;51.508;4.288;2023-02-07T17:17:32;23.75;;;13.35;;
47403;SDS011;33157;51.508;4.288;2023-02-07T17:22:38;22.50;;;14.02;;
47403;SDS011;33157;51.508;4.288;2023-02-07T17:28:12;25.00;;;14.38;;
47403;SDS011;33157;51.508;4.288;2023-02-07T17:33:58;24.50;;;14.23;;
47403;SDS011;33157;51.508;4.288;2023-02-07T17:39:32;20.55;;;13.38;;
47403;SDS011;33157;51.508;4.288;2023-02-07T17:45:20;22.08;;;13.60;;
47403;SDS011;33157;51.508;4.288;2023-02-07T17:51:12;22.92;;;13.57;;
47403;SDS011;33157;51.508;4.288;2023-02-07T17:56:40;23.45;;;13.23;;
47403;SDS011;33157;51.508;4.288;2023-02-07T18:02:20;26.38;;;14.05;;
47403;SDS011;33157;51.508;4.288;2023-02-07T18:07:24;24.02;;;14.65;;
47403;SDS011;33157;51.508;4.288;2023-02-07T18:13:02;31.48;;;16.73;;
47403;SDS011;33157;51.508;4.288;2023-02-07T18:18:49;25.75;;;14.85;;
47403;SDS011;33157;51.508;4.288;2023-02-07T18:24:29;26.52;;;15.50;;
47403;SDS011;33157;51.508;4.288;2023-02-07T18:30:02;24.65;;;14.90;;
47403;SDS011;33157;51.508;4.288;2023-02-07T18:35:26;26.52;;;15.57;;
47403;SDS011;33157;51.508;4.288;2023-02-07T18:41:18;24.52;;;15.30;;
47403;SDS011;33157;51.508;4.288;2023-02-07T18:46:47;26.17;;;15.35;;
47403;SDS011;33157;51.508;4.288;2023-02-07T18:52:26;28.50;;;15.93;;
47403;SDS011;33157;51.508;4.288;2023-02-07T18:58:08;28.25;;;16.15;;
47403;SDS011;33157;51.508;4.288;2023-02-07T19:03:38;25.63;;;16.08;;
47403;SDS011;33157;51.508;4.288;2023-02-07T19:09:29;28.35;;;16.20;;
47403;SDS011;33157;51.508;4.288;2023-02-07T19:15:27;29.35;;;16.13;;
47403;SDS011;33157;51.508;4.288;2023-02-07T19:21:03;28.40;;;16.25;;
47403;SDS011;33157;51.508;4.288;2023-02-07T19:32:30;25.85;;;14.48;;
47403;SDS011;33157;51.508;4.288;2023-02-07T19:37:59;24.63;;;14.32;;
47403;SDS011;33157;51.508;4.288;2023-02-07T19:43:47;23.48;;;15.25;;
47403;SDS011;33157;51.508;4.288;2023-02-07T19:49:21;21.52;;;13.60;;
47403;SDS011;33157;51.508;4.288;2023-02-07T19:54:53;23.70;;;14.50;;
47403;SDS011;33157;51.508;4.288;2023-02-07T20:00:31;25.23;;;15.10;;
47403;SDS011;33157;51.508;4.288;2023-02-07T20:17:49;24.23;;;14.45;;
47403;SDS011;33157;51.508;4.288;2023-02-07T20:23:32;24.00;;;14.80;;
47403;SDS011;33157;51.508;4.288;2023-02-07T20:29:03;28.47;;;13.90;;
47403;SDS011;33157;51.508;4.288;2023-02-07T20:35:07;21.55;;;13.82;;
47403;SDS011;33157;51.508;4.288;2023-02-07T20:40:33;23.45;;;13.63;;
47403;SDS011;33157;51.508;4.288;2023-02-07T20:52:36;20.38;;;12.90;;
47403;SDS011;33157;51.508;4.288;2023-02-07T20:57:46;21.90;;;13.63;;
47403;SDS011;33157;51.508;4.288;2023-02-07T21:02:54;22.17;;;13.77;;
47403;SDS011;33157;51.508;4.288;2023-02-07T21:08:39;22.33;;;13.68;;
47403;SDS011;33157;51.508;4.288;2023-02-07T21:19:43;20.67;;;12.57;;
47403;SDS011;33157;51.508;4.288;2023-02-07T21:25:13;20.55;;;13.13;;
47403;SDS011;33157;51.508;4.288;2023-02-07T21:30:19;22.92;;;13.65;;
47403;SDS011;33157;51.508;4.288;2023-02-07T21:35:49;25.63;;;13.73;;
47403;SDS011;33157;51.508;4.288;2023-02-07T21:41:37;26.08;;;14.90;;
47403;SDS011;33157;51.508;4.288;2023-02-07T21:47:22;24.27;;;15.40;;
47403;SDS011;33157;51.508;4.288;2023-02-07T21:53:10;29.98;;;16.70;;
47403;SDS011;33157;51.508;4.288;2023-02-07T21:58:19;27.02;;;15.88;;
47403;SDS011;33157;51.508;4.288;2023-02-07T22:03:53;26.50;;;16.23;;
47403;SDS011;33157;51.508;4.288;2023-02-07T22:09:37;31.02;;;18.73;;
47403;SDS011;33157;51.508;4.288;2023-02-07T22:14:50;32.75;;;20.63;;
47403;SDS011;33157;51.508;4.288;2023-02-07T22:19:59;31.40;;;18.98;;
47403;SDS011;33157;51.508;4.288;2023-02-07T22:25:01;34.30;;;18.95;;
47403;SDS011;33157;51.508;4.288;2023-02-07T22:30:09;35.63;;;18.50;;
47403;SDS011;33157;51.508;4.288;2023-02-07T22:36:15;26.42;;;16.83;;
47403;SDS011;33157;51.508;4.288;2023-02-07T22:41:24;26.92;;;16.25;;
47403;SDS011;33157;51.508;4.288;2023-02-07T22:46:31;34.72;;;15.82;;
47403;SDS011;33157;51.508;4.288;2023-02-07T22:51:41;25.40;;;15.10;;
47403;SDS011;33157;51.508;4.288;2023-02-07T22:56:56;26.40;;;15.82;;
47403;SDS011;33157;51.508;4.288;2023-02-07T23:02:23;25.15;;;16.40;;
47403;SDS011;33157;51.508;4.288;2023-02-07T23:07:30;22.35;;;13.98;;
47403;SDS011;33157;51.508;4.288;2023-02-07T23:13:31;22.10;;;13.85;;
47403;SDS011;33157;51.508;4.288;2023-02-07T23:18:50;21.58;;;12.77;;
47403;SDS011;33157;51.508;4.288;2023-02-07T23:24:12;23.35;;;15.35;;
47403;SDS011;33157;51.508;4.288;2023-02-07T23:29:44;24.48;;;15.57;;
47403;SDS011;33157;51.508;4.288;2023-02-07T23:35:07;23.95;;;14.45;;
47403;SDS011;33157;51.508;4.288;2023-02-07T23:40:15;28.05;;;14.73;;
47403;SDS011;33157;51.508;4.288;2023-02-07T23:45:28;22.23;;;14.07;;
47403;SDS011;33157;51.508;4.288;2023-02-07T23:50:29;24.75;;;14.77;;
47403;SDS011;33157;51.508;4.288;2023-02-07T23:56:08;25.67;;;13.97;;
